Savoonga, AK

11:48 PM AKDT on April 26, 2015 (GMT -0800)
Savoonga | | Change Station
CLOSE
Current Station
Airport
Location: Savoonga,
Elevation: 52 ft
Nearby Weather Stations

Elev 52 ft 63.69 °N, 170.49 °W | Updated 12 minutes ago

Overcast
Overcast
23 °F
Feels Like 17 °F
N
5
Wind Variable Wind from East

Today
High -- | Low -- °F
--% Chance of Precip.
Yesterday
High -- | Low -- °F
Precip. -- in
7:14 AM 11:27 PM
Waxing Gibbous, 63% visible
Pressure 29.90 in
Visibility 0.5 miles
Clouds Overcast 300 ft
Windchill 17 °F
Dew Point 21 °F
Humidity 93%
Rainfall 0.00 in
Snow Depth Not available.
UV 0 out of 12
Pollen Not available.
Air Quality Not available.
Flu Activity Sporadic
METAR PASA 270736Z AUTO 08004KT 1/2SM OVC003 M05/M06 A2990 RMK AO1

More Conditions Fewer Conditions

Pressure 29.90 in
Visibility 0.5 miles
Clouds Overcast 300 ft
Windchill 17 °F
Dew Point 21 °F
Humidity 93%
Rainfall 0.00 in
Snow Depth Not available.
UV 0 out of 12
Pollen Not available.
Air Quality Not available.
Flu Activity Sporadic
METAR PASA 270736Z AUTO 08004KT 1/2SM OVC003 M05/M06 A2990 RMK AO1

More Conditions Fewer Conditions

10-Day Weather Forecast

Almanac

Astronomy

Apr. 26, 2015 Rise Set
Actual Time
Civil Twilight
Nautical Twilight
Astronomical Twilight
Moon
Length of Visible Light
Length of Day
Tomorrow will be .
, % of the Moon is Illuminated

Today's Extremes

State Highs State Lows

Community

WunderPhotos

Upload Photos

1,817,277 photos uploaded!

WunderBlogs® & News

Nearby

Air Quality

  Air Quality AQ Index Pollutant
Not available.

Snow Depth

Station Depth Elevation

Earthquake Activity

City Distance Mag. Time & Date
Minimum magnitude displayed is 2.5.

Coastal Water Temperatures

Place Temperature

Stations

Nearby Weather Stations

Station Location Temp. Windchill Dew Point Humidity Wind Precip. Elev Updated Type